createdAt,value
2022-11-17T00:00:42.208Z,78.60
2022-11-17T00:03:14.730Z,75.30
2022-11-17T00:05:42.191Z,79.20
2022-11-17T00:08:09.903Z,78.50
2022-11-17T00:10:37.082Z,80.20
2022-11-17T00:13:22.519Z,80.10
2022-11-17T00:15:49.711Z,81.50
2022-11-17T00:18:35.231Z,79.60
2022-11-17T00:21:19.298Z,82.40
2022-11-17T00:23:49.962Z,78.00
2022-11-17T00:26:28.110Z,79.80
2022-11-17T00:29:05.276Z,81.40
2022-11-17T00:31:52.934Z,77.90
2022-11-17T00:34:22.590Z,75.80
2022-11-17T00:36:52.386Z,77.10
2022-11-17T00:39:22.451Z,71.70
2022-11-17T00:41:50.159Z,72.80
2022-11-17T00:44:17.829Z,72.10
2022-11-17T00:46:45.024Z,70.00
2022-11-17T00:49:12.865Z,73.70
2022-11-17T00:51:40.005Z,70.70
2022-11-17T00:54:10.127Z,71.40
2022-11-17T00:56:37.536Z,71.20
2022-11-17T00:59:04.724Z,73.70
2022-11-17T01:01:32.565Z,78.40
2022-11-17T01:04:03.646Z,81.60
2022-11-17T01:06:39.763Z,85.90
2022-11-17T01:09:13.593Z,85.50
2022-11-17T01:11:41.622Z,81.20
2022-11-17T01:14:15.606Z,85.40
2022-11-17T01:16:43.074Z,88.40
2022-11-17T01:19:12.046Z,90.90
2022-11-17T01:21:39.219Z,86.80
2022-11-17T01:24:06.778Z,81.20
2022-11-17T01:26:36.460Z,70.00
2022-11-17T01:29:05.298Z,80.20
2022-11-17T01:31:35.240Z,78.90
2022-11-17T01:34:02.674Z,77.00
2022-11-17T01:36:54.340Z,69.20
2022-11-17T01:39:22.605Z,64.30
2022-11-17T01:41:50.146Z,67.80
2022-11-17T01:44:36.108Z,67.20
2022-11-17T01:47:19.347Z,72.70
2022-11-17T01:49:48.622Z,74.30
2022-11-17T01:52:16.307Z,76.20
2022-11-17T01:54:44.602Z,75.60
2022-11-17T01:57:21.511Z,64.20
2022-11-17T01:59:54.895Z,58.10
2022-11-17T02:02:22.567Z,53.70
2022-11-17T02:05:15.515Z,57.30
2022-11-17T02:07:45.124Z,61.20
2022-11-17T02:10:12.277Z,56.60
2022-11-17T02:12:39.947Z,60.00
2022-11-17T02:15:07.644Z,58.80
2022-11-17T02:17:38.642Z,55.20
2022-11-17T02:20:20.860Z,51.60
2022-11-17T02:22:54.028Z,54.00
2022-11-17T02:25:40.994Z,54.80
2022-11-17T02:28:59.147Z,68.00
2022-11-17T02:31:42.359Z,75.70
2022-11-17T02:34:38.021Z,78.70
2022-11-17T02:37:37.863Z,71.50
2022-11-17T02:40:17.176Z,62.90
2022-11-17T02:43:10.512Z,51.60
2022-11-17T02:45:42.190Z,47.10
2022-11-17T02:48:15.458Z,56.10
2022-11-17T02:50:46.439Z,56.10
2022-11-17T02:53:15.080Z,54.80
2022-11-17T02:55:51.880Z,53.30
2022-11-17T02:58:19.655Z,50.90
2022-11-17T03:01:24.456Z,52.30
2022-11-17T03:04:30.915Z,46.30
2022-11-17T03:07:06.939Z,52.10
2022-11-17T03:09:52.837Z,61.50
2022-11-17T03:12:46.941Z,70.50
2022-11-17T03:15:46.293Z,54.30
2022-11-17T03:18:19.291Z,53.40
2022-11-17T03:20:52.219Z,56.50
2022-11-17T03:23:24.635Z,57.20
2022-11-17T03:25:58.004Z,55.30
2022-11-17T03:28:29.490Z,59.80
2022-11-17T03:30:58.372Z,67.70
2022-11-17T03:33:28.162Z,67.40
2022-11-17T03:36:02.684Z,70.30
2022-11-17T03:38:36.856Z,74.60
2022-11-17T03:41:07.713Z,66.70
2022-11-17T03:43:36.337Z,60.90
2022-11-17T03:46:12.042Z,60.30
2022-11-17T03:48:57.617Z,56.10
2022-11-17T03:51:28.038Z,59.30
2022-11-17T03:53:56.546Z,65.80
2022-11-17T03:56:32.596Z,71.40
2022-11-17T03:59:22.094Z,79.20
2022-11-17T04:01:49.326Z,88.60
2022-11-17T04:04:22.111Z,87.90
2022-11-17T04:06:55.380Z,91.60
2022-11-17T04:09:24.647Z,85.50
2022-11-17T04:12:10.578Z,92.70
2022-11-17T04:14:56.153Z,96.90
2022-11-17T04:17:23.512Z,92.00
2022-11-17T04:19:50.750Z,82.60
2022-11-17T04:22:18.033Z,87.60
2022-11-17T04:24:45.119Z,88.00
2022-11-17T04:27:30.956Z,87.10
2022-11-17T04:29:58.079Z,78.30
2022-11-17T04:32:25.337Z,74.90
2022-11-17T04:34:52.498Z,76.80
2022-11-17T04:37:19.658Z,74.90
2022-11-17T04:39:46.874Z,66.20
2022-11-17T04:42:14.068Z,59.20
2022-11-17T04:44:41.201Z,61.30
2022-11-17T04:47:08.422Z,58.20
2022-11-17T04:49:35.629Z,59.50
2022-11-17T04:52:02.790Z,58.70
2022-11-17T04:54:30.063Z,54.40
2022-11-17T04:56:57.493Z,49.60
2022-11-17T04:59:24.615Z,51.00
2022-11-17T05:01:52.002Z,49.50
2022-11-17T05:04:39.131Z,50.40
2022-11-17T05:07:07.047Z,47.50
2022-11-17T05:09:34.378Z,53.30
2022-11-17T05:12:19.885Z,50.60
2022-11-17T05:14:49.167Z,50.20
2022-11-17T05:17:17.091Z,50.70
2022-11-17T05:19:46.809Z,51.20
2022-11-17T05:22:42.535Z,52.40
2022-11-17T05:25:10.632Z,54.10
2022-11-17T05:27:38.179Z,54.20
2022-11-17T05:30:08.027Z,53.90
2022-11-17T05:32:35.193Z,54.70
2022-11-17T05:35:02.547Z,61.50
2022-11-17T05:37:29.803Z,64.00
2022-11-17T05:39:57.082Z,83.40
2022-11-17T05:42:24.311Z,66.70
2022-11-17T05:44:51.519Z,69.40
2022-11-17T05:47:18.718Z,69.20
2022-11-17T05:49:45.883Z,70.20
2022-11-17T05:52:13.260Z,68.00
2022-11-17T05:54:40.437Z,61.00
2022-11-17T05:57:12.358Z,63.80
2022-11-17T05:59:45.922Z,63.70
2022-11-17T06:02:38.897Z,65.20
2022-11-17T06:05:07.538Z,65.60
2022-11-17T06:07:36.589Z,68.10
2022-11-17T06:10:04.083Z,72.20
2022-11-17T06:12:31.188Z,73.10
2022-11-17T06:14:58.482Z,73.80
2022-11-17T06:17:34.752Z,77.50
2022-11-17T06:20:10.029Z,79.00
2022-11-17T06:22:37.323Z,78.80
2022-11-17T06:25:06.929Z,81.40
2022-11-17T06:27:35.294Z,81.00
2022-11-17T06:30:05.655Z,83.90
2022-11-17T06:32:37.888Z,82.80
2022-11-17T06:35:08.263Z,81.10
2022-11-17T06:37:35.367Z,82.30
2022-11-17T06:40:03.010Z,82.90
2022-11-17T06:42:48.893Z,84.50
2022-11-17T06:45:16.073Z,82.80
2022-11-17T06:47:43.262Z,82.70
2022-11-17T06:50:10.858Z,81.50
2022-11-17T06:52:39.029Z,79.00
2022-11-17T06:55:06.853Z,78.70
2022-11-17T06:57:34.009Z,79.80
2022-11-17T07:00:01.226Z,78.40
2022-11-17T07:02:28.462Z,75.90
2022-11-17T07:04:55.715Z,75.10
2022-11-17T07:07:22.983Z,79.80
2022-11-17T07:09:50.285Z,83.20
2022-11-17T07:12:17.554Z,84.90
2022-11-17T07:14:45.048Z,87.30
2022-11-17T07:17:12.253Z,87.50
2022-11-17T07:19:39.473Z,88.70
2022-11-17T07:22:06.717Z,87.70
2022-11-17T07:24:33.925Z,87.40
2022-11-17T07:27:01.134Z,86.20
2022-11-17T07:29:30.543Z,82.10
2022-11-17T07:31:57.834Z,68.80
2022-11-17T07:34:25.082Z,58.10
2022-11-17T07:36:52.248Z,53.40
2022-11-17T07:39:21.772Z,51.20
2022-11-17T07:41:49.308Z,53.90
2022-11-17T07:44:16.427Z,50.90
2022-11-17T07:46:43.692Z,50.70
2022-11-17T07:49:10.848Z,48.10
2022-11-17T07:51:38.054Z,49.50
2022-11-17T07:54:05.385Z,49.00
2022-11-17T07:56:32.704Z,48.10
2022-11-17T07:58:59.923Z,45.20
2022-11-17T08:01:27.667Z,44.00
2022-11-17T08:03:55.149Z,46.20
2022-11-17T08:06:24.038Z,50.30
2022-11-17T08:08:51.813Z,45.60
2022-11-17T08:11:19.514Z,43.80
2022-11-17T08:13:47.012Z,43.90
2022-11-17T08:16:14.480Z,42.70
2022-11-17T08:18:44.895Z,42.80
2022-11-17T08:21:15.355Z,33.30
2022-11-17T08:23:42.775Z,36.60
2022-11-17T08:26:11.640Z,32.10
2022-11-17T08:28:39.369Z,33.10
2022-11-17T08:31:08.014Z,35.10
2022-11-17T08:33:36.082Z,35.40
2022-11-17T08:36:07.129Z,33.50
2022-11-17T08:38:36.258Z,33.40
2022-11-17T08:41:06.542Z,33.70
2022-11-17T08:43:34.573Z,52.30
2022-11-17T08:46:02.775Z,33.10
2022-11-17T08:48:31.745Z,32.30
2022-11-17T08:51:04.340Z,33.40
2022-11-17T08:53:31.541Z,31.60
2022-11-17T08:55:59.183Z,31.80
2022-11-17T08:58:26.508Z,32.60
2022-11-17T09:00:53.863Z,31.70
2022-11-17T09:03:21.147Z,33.20
2022-11-17T09:05:48.482Z,33.40
2022-11-17T09:08:43.965Z,31.50
2022-11-17T09:11:11.048Z,32.20
2022-11-17T09:13:38.627Z,31.60
2022-11-17T09:16:09.087Z,31.50
2022-11-17T09:18:38.406Z,29.60
2022-11-17T09:21:11.446Z,32.10
2022-11-17T09:23:39.568Z,30.60
2022-11-17T09:26:12.414Z,31.30
2022-11-17T09:28:40.304Z,30.10
2022-11-17T09:31:10.200Z,30.00
2022-11-17T09:33:37.833Z,29.80
2022-11-17T09:36:07.406Z,29.90
2022-11-17T09:38:36.314Z,29.70
2022-11-17T09:41:18.331Z,29.30
2022-11-17T09:44:14.423Z,29.40
2022-11-17T09:46:53.711Z,31.60
2022-11-17T09:49:29.736Z,28.40
2022-11-17T09:52:01.069Z,26.80
2022-11-17T09:54:43.234Z,27.50
2022-11-17T09:57:25.472Z,28.20
2022-11-17T10:00:18.376Z,25.50
2022-11-17T10:02:46.293Z,25.20
2022-11-17T10:05:29.079Z,27.50
2022-11-17T10:08:00.575Z,25.50
2022-11-17T10:10:45.145Z,24.80
2022-11-17T10:13:33.827Z,25.60
2022-11-17T10:16:19.499Z,25.20
2022-11-17T10:18:46.725Z,25.60
2022-11-17T10:21:13.883Z,25.00
2022-11-17T10:23:46.843Z,24.40
2022-11-17T10:26:16.224Z,24.80
2022-11-17T10:28:43.623Z,24.60
2022-11-17T10:31:21.752Z,22.60
2022-11-17T10:33:50.700Z,23.40
2022-11-17T10:36:26.765Z,23.00
2022-11-17T10:38:56.993Z,22.30
2022-11-17T10:41:32.690Z,22.30
2022-11-17T10:44:07.468Z,22.90
2022-11-17T10:47:02.037Z,23.80
2022-11-17T10:49:34.183Z,24.20
2022-11-17T10:52:18.553Z,23.60
2022-11-17T10:54:46.004Z,22.80
2022-11-17T10:57:19.917Z,22.00
2022-11-17T10:59:56.838Z,22.10
2022-11-17T11:02:42.078Z,22.60
2022-11-17T11:05:15.865Z,21.20
2022-11-17T11:07:43.877Z,21.20
2022-11-17T11:10:23.728Z,21.40
2022-11-17T11:13:27.871Z,21.00
2022-11-17T11:15:55.339Z,20.20
2022-11-17T11:18:22.626Z,19.10
2022-11-17T11:20:59.878Z,19.70
2022-11-17T11:23:38.063Z,19.30
2022-11-17T11:26:25.999Z,19.20
2022-11-17T11:28:59.118Z,18.60
2022-11-17T11:31:39.895Z,18.20
2022-11-17T11:34:19.780Z,19.40
2022-11-17T11:36:50.160Z,18.90
2022-11-17T11:39:35.675Z,19.00
2022-11-17T11:42:07.686Z,18.60
2022-11-17T11:44:44.773Z,18.70
2022-11-17T11:47:20.948Z,18.20
2022-11-17T11:49:58.936Z,19.10
2022-11-17T11:52:31.431Z,18.10
2022-11-17T11:55:17.409Z,16.90
2022-11-17T11:57:58.632Z,17.40
2022-11-17T12:00:25.855Z,16.20
2022-11-17T12:03:21.326Z,17.00
2022-11-17T12:06:29.014Z,16.10
2022-11-17T12:09:35.315Z,16.30
2022-11-17T12:12:08.753Z,17.60
2022-11-17T12:14:38.109Z,16.90
2022-11-17T12:17:14.305Z,17.30
2022-11-17T12:19:58.027Z,16.80
2022-11-17T12:22:53.248Z,31.60
2022-11-17T12:25:30.163Z,16.70
2022-11-17T12:27:57.621Z,17.30
2022-11-17T12:30:30.901Z,17.30
2022-11-17T12:33:04.792Z,18.20
2022-11-17T12:35:37.928Z,16.90
2022-11-17T12:38:17.228Z,16.90
2022-11-17T12:40:49.493Z,15.80
2022-11-17T12:43:16.705Z,16.30
2022-11-17T12:45:53.324Z,16.70
2022-11-17T12:48:33.929Z,16.60
2022-11-17T12:51:10.568Z,16.30
2022-11-17T12:54:00.586Z,16.60
2022-11-17T12:56:37.001Z,16.00
2022-11-17T12:59:26.075Z,16.20
2022-11-17T13:02:22.588Z,16.00
2022-11-17T13:04:55.223Z,16.20
2022-11-17T13:07:26.890Z,15.80
2022-11-17T13:09:58.906Z,15.60
2022-11-17T13:12:30.863Z,15.90
2022-11-17T13:15:04.661Z,14.80
2022-11-17T13:17:44.434Z,15.10
2022-11-17T13:20:24.024Z,14.40
2022-11-17T13:23:24.247Z,13.10
2022-11-17T13:26:07.562Z,12.80
2022-11-17T13:28:34.801Z,12.90
2022-11-17T13:31:02.509Z,13.10
2022-11-17T13:33:32.374Z,13.40
2022-11-17T13:36:24.951Z,13.40
2022-11-17T13:38:57.188Z,13.90
2022-11-17T13:41:25.906Z,12.80
2022-11-17T13:43:54.348Z,13.00
2022-11-17T13:46:21.864Z,13.00
2022-11-17T13:48:50.783Z,12.20
2022-11-17T13:51:42.245Z,12.50
2022-11-17T13:54:13.102Z,13.20
2022-11-17T13:56:46.600Z,12.50
2022-11-17T13:59:34.996Z,12.90
2022-11-17T14:02:17.440Z,12.00
2022-11-17T14:05:09.678Z,12.20
2022-11-17T14:07:38.721Z,12.00
2022-11-17T14:10:21.358Z,11.60
2022-11-17T14:12:53.583Z,12.30
2022-11-17T14:15:26.009Z,11.50
2022-11-17T14:17:54.199Z,11.40
2022-11-17T14:20:24.418Z,11.80
2022-11-17T14:23:02.932Z,11.60
2022-11-17T14:25:31.221Z,10.90
2022-11-17T14:27:58.460Z,10.50
2022-11-17T14:30:26.315Z,10.80
2022-11-17T14:32:53.559Z,10.40
2022-11-17T14:35:20.896Z,10.60
2022-11-17T14:37:48.168Z,10.40
2022-11-17T14:40:17.887Z,10.70
2022-11-17T14:42:45.092Z,10.10
2022-11-17T14:45:14.365Z,10.20
2022-11-17T14:47:41.952Z,10.30
2022-11-17T14:50:14.276Z,11.00
2022-11-17T14:52:43.261Z,9.50
2022-11-17T14:55:14.807Z,9.80
2022-11-17T14:57:42.877Z,9.30
2022-11-17T15:00:15.853Z,10.20
2022-11-17T15:02:46.464Z,9.30
2022-11-17T15:05:13.664Z,9.90
2022-11-17T15:07:40.903Z,9.90
2022-11-17T15:10:09.316Z,10.00
2022-11-17T15:12:36.811Z,11.20
2022-11-17T15:15:05.147Z,10.70
2022-11-17T15:17:33.104Z,10.30
2022-11-17T15:20:00.321Z,13.00
2022-11-17T15:22:27.481Z,15.00
2022-11-17T15:24:54.638Z,18.70
2022-11-17T15:27:21.926Z,24.90
2022-11-17T15:29:49.378Z,23.70
2022-11-17T15:32:16.684Z,22.90
2022-11-17T15:34:43.911Z,16.30
2022-11-17T15:37:11.064Z,16.20
2022-11-17T15:39:38.252Z,16.30
2022-11-17T15:42:05.449Z,15.50
2022-11-17T15:44:32.667Z,16.10
2022-11-17T15:46:59.834Z,16.00
2022-11-17T15:49:26.999Z,16.10
2022-11-17T15:51:54.622Z,16.50
2022-11-17T15:54:23.378Z,16.10
2022-11-17T15:56:51.783Z,17.20
2022-11-17T15:59:19.897Z,16.20
2022-11-17T16:01:47.825Z,16.20
2022-11-17T16:04:16.121Z,15.80
2022-11-17T16:06:45.351Z,17.70
2022-11-17T16:09:13.180Z,17.70
2022-11-17T16:11:40.677Z,17.20
2022-11-17T16:14:08.294Z,16.90
2022-11-17T16:16:37.739Z,30.40
2022-11-17T16:19:05.782Z,15.80
2022-11-17T16:21:33.219Z,16.00
2022-11-17T16:24:02.360Z,18.10
2022-11-17T16:26:30.756Z,17.60
2022-11-17T16:29:04.557Z,18.60
2022-11-17T16:31:34.315Z,19.00
2022-11-17T16:34:03.720Z,18.90
2022-11-17T16:36:36.736Z,18.40
2022-11-17T16:39:06.699Z,19.20
2022-11-17T16:41:36.230Z,19.70
2022-11-17T16:44:12.011Z,19.30
2022-11-17T16:46:42.830Z,19.50
2022-11-17T16:49:12.371Z,19.50
2022-11-17T16:51:40.060Z,19.10
2022-11-17T16:54:11.612Z,18.70
2022-11-17T16:56:38.798Z,18.10
2022-11-17T16:59:06.152Z,20.20
2022-11-17T17:01:35.483Z,23.20
2022-11-17T17:04:05.479Z,25.50
2022-11-17T17:06:33.320Z,27.30
2022-11-17T17:09:03.315Z,26.00
2022-11-17T17:11:32.174Z,25.60
2022-11-17T17:14:03.057Z,25.50
2022-11-17T17:16:32.054Z,23.40
2022-11-17T17:19:00.775Z,22.80
2022-11-17T17:21:29.270Z,21.90
2022-11-17T17:23:57.507Z,22.70
2022-11-17T17:26:27.680Z,23.90
2022-11-17T17:28:57.342Z,24.60
2022-11-17T17:31:25.862Z,24.80
2022-11-17T17:33:55.006Z,25.60
2022-11-17T17:36:25.047Z,30.10
2022-11-17T17:38:56.264Z,30.70
2022-11-17T17:41:27.612Z,31.80
2022-11-17T17:44:00.615Z,36.00
2022-11-17T17:46:31.940Z,34.50
2022-11-17T17:48:59.322Z,34.00
2022-11-17T17:51:28.823Z,32.80
2022-11-17T17:54:01.141Z,30.30
2022-11-17T17:56:30.355Z,30.40
2022-11-17T17:58:58.265Z,31.00
2022-11-17T18:01:30.354Z,31.30
2022-11-17T18:04:04.670Z,30.40
2022-11-17T18:06:37.379Z,31.10
2022-11-17T18:09:06.395Z,31.70
2022-11-17T18:11:33.881Z,29.50
2022-11-17T18:14:00.996Z,30.90
2022-11-17T18:16:31.021Z,29.90
2022-11-17T18:19:00.388Z,29.70
2022-11-17T18:21:28.920Z,30.00
2022-11-17T18:23:57.411Z,33.30
2022-11-17T18:26:30.008Z,32.70
2022-11-17T18:28:59.971Z,34.40
2022-11-17T18:31:29.984Z,35.20
2022-11-17T18:33:59.913Z,32.80
2022-11-17T18:36:28.100Z,31.90
2022-11-17T18:38:56.759Z,32.20
2022-11-17T18:41:24.450Z,33.10
2022-11-17T18:43:52.386Z,33.40
2022-11-17T18:46:21.701Z,32.90
2022-11-17T18:48:51.814Z,33.30
2022-11-17T18:51:21.902Z,33.00
2022-11-17T18:53:51.772Z,32.70
2022-11-17T18:56:21.752Z,33.90
2022-11-17T18:58:49.626Z,33.60
2022-11-17T19:01:17.184Z,34.50
2022-11-17T19:03:47.302Z,35.60
2022-11-17T19:06:16.494Z,35.70
2022-11-17T19:08:43.796Z,37.80
2022-11-17T19:11:11.959Z,39.40
2022-11-17T19:13:40.638Z,41.20
2022-11-17T19:16:22.663Z,40.30
2022-11-17T19:18:51.560Z,43.80
2022-11-17T19:21:25.846Z,45.40
2022-11-17T19:23:54.379Z,41.90
2022-11-17T19:26:32.427Z,41.20
2022-11-17T19:29:06.430Z,40.50
2022-11-17T19:31:36.944Z,39.90
2022-11-17T19:34:04.538Z,45.50
2022-11-17T19:36:33.779Z,48.80
2022-11-17T19:39:03.455Z,41.20
2022-11-17T19:41:35.636Z,40.70
2022-11-17T19:44:05.024Z,38.30
2022-11-17T19:46:33.139Z,42.10
2022-11-17T19:49:00.339Z,46.90
2022-11-17T19:51:33.199Z,42.50
2022-11-17T19:54:06.382Z,48.50
2022-11-17T19:56:34.040Z,51.60
2022-11-17T19:59:01.325Z,51.80
2022-11-17T20:01:30.181Z,48.60
2022-11-17T20:04:00.124Z,51.10
2022-11-17T20:06:31.983Z,61.30
2022-11-17T20:08:59.307Z,56.90
2022-11-17T20:11:28.333Z,51.40
2022-11-17T20:13:55.854Z,47.00
2022-11-17T20:16:25.886Z,43.50
2022-11-17T20:18:55.536Z,45.30
2022-11-17T20:21:23.895Z,44.10
2022-11-17T20:23:51.549Z,47.10
2022-11-17T20:26:24.747Z,53.60
2022-11-17T20:28:52.691Z,54.80
2022-11-17T20:31:24.234Z,50.40
2022-11-17T20:33:53.907Z,49.50
2022-11-17T20:36:23.493Z,46.60
2022-11-17T20:38:52.072Z,48.60
2022-11-17T20:41:21.101Z,57.70
2022-11-17T20:43:53.227Z,73.30
2022-11-17T20:46:21.383Z,84.10
2022-11-17T20:48:49.254Z,89.50
2022-11-17T20:51:19.367Z,81.60
2022-11-17T20:53:47.352Z,84.10
2022-11-17T20:56:18.619Z,79.40
2022-11-17T20:58:46.187Z,73.90
2022-11-17T21:01:14.682Z,74.30
2022-11-17T21:03:42.559Z,55.10
2022-11-17T21:06:10.257Z,53.20
2022-11-17T21:08:39.106Z,57.10
2022-11-17T21:11:32.479Z,73.50
2022-11-17T21:14:00.119Z,73.30
2022-11-17T21:16:27.483Z,62.80
2022-11-17T21:18:54.751Z,56.20
2022-11-17T21:21:22.116Z,56.10
2022-11-17T21:23:56.147Z,53.90
2022-11-17T21:26:24.033Z,51.50
2022-11-17T21:28:52.395Z,54.60
2022-11-17T21:31:22.263Z,74.20
2022-11-17T21:34:03.037Z,90.60
2022-11-17T21:36:31.645Z,93.20
2022-11-17T21:38:59.221Z,96.40
2022-11-17T21:41:31.575Z,99.90
2022-11-17T21:44:00.504Z,96.80
2022-11-17T21:46:30.281Z,99.90
2022-11-17T21:48:58.948Z,99.20
2022-11-17T21:51:28.484Z,86.60
2022-11-17T21:54:00.416Z,75.90
2022-11-17T21:56:29.077Z,80.90
2022-11-17T21:58:57.994Z,78.70
2022-11-17T22:01:25.594Z,74.60
2022-11-17T22:03:52.932Z,76.20
2022-11-17T22:06:22.804Z,81.00
2022-11-17T22:08:50.869Z,77.60
2022-11-17T22:11:36.673Z,77.10
2022-11-17T22:14:12.635Z,78.10
2022-11-17T22:16:42.705Z,76.30
2022-11-17T22:19:11.210Z,66.10
2022-11-17T22:21:39.565Z,73.00
2022-11-17T22:24:10.109Z,80.70
2022-11-17T22:26:38.721Z,81.80
2022-11-17T22:29:08.049Z,90.00
2022-11-17T22:31:35.262Z,86.00
2022-11-17T22:34:02.431Z,99.90
2022-11-17T22:36:29.666Z,85.30
2022-11-17T22:38:56.800Z,90.30
2022-11-17T22:41:24.040Z,81.90
2022-11-17T22:43:52.082Z,90.90
2022-11-17T22:46:20.877Z,93.10
2022-11-17T22:48:48.703Z,95.60
2022-11-17T22:51:39.137Z,94.10
2022-11-17T22:54:07.871Z,96.90
2022-11-17T22:56:35.619Z,99.90
2022-11-17T22:59:02.900Z,99.50
2022-11-17T23:01:30.037Z,99.60
2022-11-17T23:03:57.227Z,99.90
2022-11-17T23:06:24.465Z,99.90
2022-11-17T23:08:51.651Z,99.90
2022-11-17T23:11:36.454Z,99.90
2022-11-17T23:14:12.479Z,99.90
2022-11-17T23:16:40.404Z,96.60
2022-11-17T23:19:09.577Z,91.90
2022-11-17T23:21:36.890Z,83.80
2022-11-17T23:24:04.933Z,88.00
2022-11-17T23:26:32.093Z,97.90
2022-11-17T23:28:59.520Z,78.20
2022-11-17T23:31:27.982Z,80.80
2022-11-17T23:33:55.251Z,90.60
2022-11-17T23:36:22.996Z,91.10
2022-11-17T23:38:51.429Z,96.40
2022-11-17T23:41:20.726Z,99.90
2022-11-17T23:43:52.542Z,99.90
2022-11-17T23:46:21.765Z,99.90
2022-11-17T23:48:49.129Z,99.90
2022-11-17T23:51:18.630Z,99.90
2022-11-17T23:53:46.911Z,99.30
2022-11-17T23:56:15.459Z,94.60
2022-11-17T23:58:43.557Z,94.20
